Time;durP1;ratioP1;P1;durP2;ratioP2;P2;SDS_P1;SDS_P2;PMS_P1;PMS_P2;Temp;Humidity;BMP_temperature;BMP_pressure;BME280_temperature;BME280_humidity;BME280_pressure;Samples;Min_cycle;Max_cycle;Signal;HPM_P1;HPM_P2
2022/07/04 00:01:15;;;;;;;2.05;1.05;;;19.50;99.90;;;;;;5260139;28;20358;-59
2022/07/04 00:03:47;;;;;;;2.10;1.10;;;19.60;99.90;;;;;;5259273;28;20028;-59
2022/07/04 00:06:21;;;;;;;0.90;0.90;;;19.60;99.90;;;;;;5231216;28;20050;-59
2022/07/04 00:08:52;;;;;;;1.15;1.05;;;19.50;99.90;;;;;;5259753;28;20020;-60
2022/07/04 00:11:23;;;;;;;1.30;1.20;;;19.40;99.90;;;;;;5241710;28;20063;-59
2022/07/04 00:13:54;;;;;;;1.17;1.10;;;19.30;99.90;;;;;;5242074;28;20036;-59
2022/07/04 00:16:26;;;;;;;1.77;1.10;;;19.30;99.90;;;;;;5242101;28;20309;-59
2022/07/04 00:19:00;;;;;;;0.90;0.90;;;19.20;99.90;;;;;;5259453;28;20025;-60
2022/07/04 00:21:33;;;;;;;;;;;19.30;99.90;;;;;;5241888;28;20032;-59
2022/07/04 00:24:07;;;;;;;7.30;1.55;;;19.30;99.90;;;;;;5257872;28;20077;-60
2022/07/04 00:26:40;;;;;;;1.65;1.10;;;19.30;99.90;;;;;;5224490;28;20037;-60
2022/07/04 00:29:14;;;;;;;1.30;1.00;;;19.30;99.90;;;;;;5258498;28;20027;-60
2022/07/04 00:31:49;;;;;;;1.23;1.17;;;19.20;99.90;;;;;;5258507;28;20103;-59
2022/07/04 00:34:22;;;;;;;;;;;19.10;99.90;;;;;;5241347;28;20039;-61
2022/07/04 00:36:54;;;;;;;1.40;1.20;;;19.00;99.90;;;;;;5229997;28;19900;-60
2022/07/04 00:39:25;;;;;;;2.35;1.48;;;18.90;99.90;;;;;;5243215;28;20036;-60
2022/07/04 00:41:59;;;;;;;2.30;1.27;;;18.80;99.90;;;;;;5244013;28;20029;-59
2022/07/04 00:44:35;;;;;;;1.10;1.00;;;18.70;99.90;;;;;;5260583;28;20071;-60
2022/07/04 00:47:08;;;;;;;1.38;1.27;;;18.60;99.90;;;;;;5260104;28;20046;-59
2022/07/04 00:49:40;;;;;;;1.25;1.15;;;18.60;99.90;;;;;;5241180;28;20039;-59
2022/07/04 00:52:14;;;;;;;1.40;1.30;;;18.70;99.90;;;;;;5259472;28;20024;-59
2022/07/04 00:54:53;;;;;;;1.20;1.10;;;18.80;99.90;;;;;;5225602;28;20035;-58
2022/07/04 00:57:24;;;;;;;2.45;1.30;;;18.80;99.90;;;;;;5241905;28;20220;-59
2022/07/04 00:59:58;;;;;;;1.30;1.17;;;18.70;99.90;;;;;;5242171;28;20024;-58
2022/07/04 01:02:29;;;;;;;1.60;1.20;;;18.60;99.90;;;;;;5242678;28;20039;-59
2022/07/04 01:05:04;;;;;;;1.27;1.13;;;18.60;99.90;;;;;;5231175;28;20365;-58
2022/07/04 01:07:38;;;;;;;1.10;1.00;;;18.50;99.90;;;;;;5260129;28;20020;-59
2022/07/04 01:10:11;;;;;;;1.02;0.93;;;18.50;99.90;;;;;;5241148;28;20212;-60
2022/07/04 01:12:42;;;;;;;1.20;1.10;;;18.50;99.90;;;;;;5259683;28;20032;-59
2022/07/04 01:15:15;;;;;;;1.50;1.40;;;18.50;99.90;;;;;;5241731;28;20032;-58
2022/07/04 01:17:49;;;;;;;1.25;1.20;;;18.50;99.90;;;;;;5242330;28;20030;-58
2022/07/04 01:20:22;;;;;;;1.20;1.10;;;18.40;99.90;;;;;;5259113;28;20025;-61
2022/07/04 01:22:56;;;;;;;1.40;1.25;;;18.40;99.90;;;;;;5240894;28;20025;-59
2022/07/04 01:28:56;;;;;;;2.17;1.10;;;18.20;99.90;;;;;;5241051;28;20182;-59
2022/07/04 01:31:27;;;;;;;1.52;1.13;;;18.00;99.90;;;;;;5241390;28;20028;-59
2022/07/04 01:34:01;;;;;;;1.50;1.40;;;18.00;99.90;;;;;;5240878;28;20020;-59
2022/07/04 01:37:25;;;;;;;2.83;1.48;;;18.00;99.90;;;;;;5240984;28;20024;-59
2022/07/04 01:39:56;;;;;;;1.23;1.13;;;17.90;99.90;;;;;;5257668;28;20197;-58
2022/07/04 01:42:27;;;;;;;1.70;1.60;;;17.90;99.90;;;;;;5258551;28;20016;-59
2022/07/04 01:44:58;;;;;;;1.30;1.20;;;17.90;99.90;;;;;;5262705;28;20031;-58
2022/07/04 01:47:35;;;;;;;1.25;1.15;;;17.90;99.90;;;;;;5242681;28;20209;-59
2022/07/04 01:50:09;;;;;;;1.00;1.00;;;18.00;99.90;;;;;;5227204;28;20024;-59
2022/07/04 01:52:52;;;;;;;1.50;1.30;;;18.00;99.90;;;;;;5243211;28;20032;-59
2022/07/04 01:55:30;;;;;;;1.38;1.20;;;17.90;99.90;;;;;;5243731;28;20265;-59
2022/07/04 01:58:01;;;;;;;1.67;1.45;;;17.90;99.90;;;;;;5263058;28;20020;-59
2022/07/04 02:03:24;;;;;;;1.85;1.02;;;17.80;99.90;;;;;;5262145;28;20038;-59
2022/07/04 02:05:56;;;;;;;1.15;1.10;;;17.70;99.90;;;;;;5259274;28;20031;-59
2022/07/04 02:09:14;;;;;;;0.90;0.90;;;17.60;99.90;;;;;;5262262;28;20034;-59
2022/07/04 02:11:18;;;;;;;2.13;1.40;;;17.50;99.90;;;;;;5260794;28;20044;-59
2022/07/04 02:13:49;;;;;;;1.40;1.30;;;17.50;99.90;;;;;;5244869;28;20189;-59
2022/07/04 02:19:48;;;;;;;1.50;1.40;;;17.50;99.90;;;;;;5261628;28;20020;-59
2022/07/04 02:22:22;;;;;;;1.50;1.40;;;17.50;99.90;;;;;;5210238;28;20199;-58
2022/07/04 02:24:53;;;;;;;1.40;1.30;;;17.50;99.90;;;;;;5261292;28;20027;-59
2022/07/04 02:27:25;;;;;;;1.10;0.98;;;17.50;99.90;;;;;;5244736;28;20217;-59
2022/07/04 02:29:56;;;;;;;1.13;1.10;;;17.50;99.90;;;;;;5243752;28;20027;-59
2022/07/04 02:32:27;;;;;;;1.55;1.45;;;17.50;99.90;;;;;;5244069;28;20051;-59
2022/07/04 02:35:01;;;;;;;1.63;1.52;;;17.50;99.90;;;;;;5226140;28;20032;-59
2022/07/04 02:37:32;;;;;;;1.65;1.30;;;17.50;99.90;;;;;;5261790;28;20031;-59
2022/07/04 02:40:07;;;;;;;2.30;1.17;;;17.50;99.90;;;;;;5261272;28;20320;-59
2022/07/04 02:42:42;;;;;;;1.48;1.38;;;17.50;99.90;;;;;;5226498;28;20323;-59
2022/07/04 02:45:18;;;;;;;1.52;1.42;;;17.50;99.90;;;;;;5243355;28;20034;-59
2022/07/04 02:47:50;;;;;;;1.42;1.33;;;17.50;99.90;;;;;;5262096;28;20037;-59
2022/07/04 02:50:26;;;;;;;1.52;1.42;;;17.60;99.90;;;;;;5242709;28;20038;-59
2022/07/04 02:52:59;;;;;;;5.38;1.20;;;17.60;99.90;;;;;;5243766;28;20207;-60
2022/07/04 03:02:26;;;;;;;1.40;1.30;;;17.60;99.90;;;;;;5243565;28;20028;-60
2022/07/04 03:05:01;;;;;;;1.63;1.42;;;17.60;99.90;;;;;;5232506;28;20044;-60
2022/07/04 03:07:33;;;;;;;1.50;1.40;;;17.60;99.90;;;;;;5241243;28;20743;-60
2022/07/04 03:10:04;;;;;;;1.83;1.50;;;17.60;99.90;;;;;;5225804;28;20040;-59
2022/07/04 03:12:40;;;;;;;1.40;1.30;;;17.60;99.90;;;;;;5242941;28;20298;-59
2022/07/04 03:15:11;;;;;;;1.98;1.48;;;17.60;99.90;;;;;;5259793;28;20035;-59
2022/07/04 03:17:43;;;;;;;1.80;1.17;;;17.60;99.90;;;;;;5243494;28;20031;-59
2022/07/04 03:20:16;;;;;;;1.30;1.17;;;17.70;99.90;;;;;;5241681;28;20035;-59
2022/07/04 03:22:48;;;;;;;1.73;1.55;;;17.80;99.90;;;;;;5226680;28;20032;-59
2022/07/04 03:28:52;;;;;;;2.88;1.90;;;18.10;99.90;;;;;;5259630;28;20190;-59
2022/07/04 03:31:27;;;;;;;1.75;1.40;;;18.30;99.90;;;;;;5261443;28;20034;-58
2022/07/04 03:34:11;;;;;;;1.25;1.15;;;18.50;99.90;;;;;;5259193;28;20033;-59
2022/07/04 03:40:15;;;;;;;1.23;1.13;;;18.80;99.90;;;;;;5260430;28;20023;-59
2022/07/04 03:42:49;;;;;;;2.45;1.20;;;19.00;99.90;;;;;;5260190;28;20036;-60
2022/07/04 03:45:23;;;;;;;3.70;1.20;;;19.10;99.90;;;;;;5238140;28;20417;-61
2022/07/04 03:47:58;;;;;;;1.40;1.23;;;19.30;99.90;;;;;;5219847;28;20401;-60
2022/07/04 03:50:32;;;;;;;;;;;19.50;99.90;;;;;;5187956;28;20375;-60
2022/07/04 03:53:03;;;;;;;1.10;1.00;;;19.70;99.90;;;;;;5238082;28;19911;-62
2022/07/04 03:55:34;;;;;;;1.58;1.48;;;19.90;99.90;;;;;;5238216;28;20031;-62
2022/07/04 03:58:08;;;;;;;1.67;1.25;;;20.10;99.90;;;;;;5238796;28;20017;-61
2022/07/04 04:00:42;;;;;;;0.83;0.83;;;20.20;99.90;;;;;;5220078;28;20039;-62
2022/07/04 04:06:03;;;;;;;1.20;1.10;;;20.50;99.90;;;;;;5225417;28;20079;-62
2022/07/04 04:08:36;;;;;;;1.73;1.48;;;20.60;99.90;;;;;;5220029;28;20021;-62
2022/07/04 04:11:12;;;;;;;1.58;1.25;;;20.80;99.90;;;;;;5219535;28;20036;-62
2022/07/04 04:13:46;;;;;;;1.65;1.15;;;20.90;99.90;;;;;;5202628;28;20028;-62
2022/07/04 04:16:20;;;;;;;2.33;1.07;;;20.80;99.90;;;;;;5238305;28;20031;-63
2022/07/04 04:18:51;;;;;;;1.25;1.15;;;20.70;99.90;;;;;;5248400;28;20320;-63
2022/07/04 04:21:24;;;;;;;1.75;1.38;;;20.70;99.90;;;;;;5250970;28;20035;-63
2022/07/04 04:23:56;;;;;;;1.40;1.25;;;20.60;99.90;;;;;;5238167;28;20255;-61
2022/07/04 04:26:30;;;;;;;1.27;1.17;;;20.80;99.90;;;;;;5220896;28;20024;-62
2022/07/04 04:29:02;;;;;;;1.30;1.20;;;21.00;99.90;;;;;;5238657;28;20035;-62
2022/07/04 04:31:38;;;;;;;1.88;1.17;;;21.30;99.90;;;;;;5237691;28;20032;-61
2022/07/04 04:34:11;;;;;;;1.60;1.20;;;21.60;99.90;;;;;;5241089;28;20320;-62
2022/07/04 04:36:42;;;;;;;2.10;1.50;;;22.20;99.90;;;;;;5221337;28;20028;-62
2022/07/04 04:39:14;;;;;;;1.10;0.90;;;22.70;99.90;;;;;;5237315;28;20447;-62
2022/07/04 04:41:47;;;;;;;1.50;1.20;;;23.10;99.90;;;;;;5202641;28;20021;-62
2022/07/04 04:44:22;;;;;;;0.80;0.80;;;23.30;99.90;;;;;;5238139;28;20299;-61
2022/07/04 04:46:56;;;;;;;1.13;1.03;;;23.50;99.90;;;;;;5237580;28;20254;-61
2022/07/04 04:49:27;;;;;;;1.05;0.95;;;23.70;99.90;;;;;;5237844;28;20024;-64
2022/07/04 04:52:01;;;;;;;1.10;1.00;;;23.80;99.90;;;;;;5235786;28;20028;-61
2022/07/04 04:54:38;;;;;;;1.25;1.15;;;24.00;99.90;;;;;;5236996;28;20257;-62
2022/07/04 04:57:10;;;;;;;1.20;1.10;;;24.30;99.90;;;;;;5238974;28;20192;-62
2022/07/04 04:59:41;;;;;;;1.15;0.95;;;24.60;99.90;;;;;;5237620;28;20038;-62
2022/07/04 05:02:12;;;;;;;1.20;1.10;;;24.70;99.90;;;;;;5237170;28;20482;-62
2022/07/04 05:04:46;;;;;;;1.27;1.00;;;24.90;99.90;;;;;;5188724;28;20339;-63
2022/07/04 05:07:17;;;;;;;2.13;1.40;;;25.10;99.90;;;;;;5226397;28;20084;-62
2022/07/04 05:09:58;;;;;;;1.58;1.33;;;25.20;99.90;;;;;;5236856;28;20042;-65
2022/07/04 05:12:29;;;;;;;1.20;1.10;;;25.50;99.90;;;;;;5237101;28;20017;-63
2022/07/04 05:15:03;;;;;;;1.70;1.20;;;25.60;99.90;;;;;;5237618;28;20225;-63
2022/07/04 05:17:36;;;;;;;2.60;1.27;;;25.80;99.90;;;;;;5238712;28;20025;-62
2022/07/04 05:20:08;;;;;;;1.13;1.10;;;25.90;99.90;;;;;;5222714;28;20028;-63
2022/07/04 05:22:42;;;;;;;7.72;2.00;;;26.00;99.90;;;;;;5245248;28;20024;-62
2022/07/04 05:25:13;;;;;;;2.35;1.55;;;26.00;99.90;;;;;;5209398;28;20028;-62
2022/07/04 05:27:50;;;;;;;1.55;1.25;;;26.10;99.90;;;;;;5247191;28;20032;-61
2022/07/04 05:30:21;;;;;;;5.93;1.15;;;26.00;99.90;;;;;;5210408;28;20032;-62
2022/07/04 05:32:55;;;;;;;1.95;1.40;;;25.90;99.90;;;;;;5245952;28;20247;-61
2022/07/04 05:35:27;;;;;;;1.10;1.00;;;25.90;99.90;;;;;;5249312;28;20020;-62
2022/07/04 05:38:03;;;;;;;1.20;1.10;;;26.10;99.90;;;;;;5231864;28;20020;-62
2022/07/04 05:40:37;;;;;;;1.20;1.10;;;26.10;99.90;;;;;;5239643;28;20209;-62
2022/07/04 05:43:14;;;;;;;0.98;0.98;;;25.90;99.90;;;;;;5247702;28;20030;-62
2022/07/04 05:45:48;;;;;;;1.30;1.10;;;25.70;99.90;;;;;;5248159;28;20050;-63
2022/07/04 05:48:19;;;;;;;1.20;1.10;;;25.50;99.90;;;;;;5211801;28;20029;-61
2022/07/04 05:50:52;;;;;;;1.23;1.00;;;25.40;99.90;;;;;;5246930;28;20025;-62
2022/07/04 05:53:26;;;;;;;1.63;1.33;;;25.50;99.90;;;;;;5229933;28;20377;-61
2022/07/04 05:55:57;;;;;;;1.33;1.20;;;25.70;99.90;;;;;;5239276;28;20028;-62
2022/07/04 05:58:30;;;;;;;1.67;1.30;;;26.10;99.90;;;;;;5239419;28;20028;-62
2022/07/04 06:01:07;;;;;;;2.88;1.75;;;26.70;99.90;;;;;;5261545;28;20029;-62
2022/07/04 06:03:40;;;;;;;2.50;1.70;;;27.50;99.90;;;;;;5241515;28;20028;-62
2022/07/04 06:06:14;;;;;;;1.73;1.23;;;28.30;99.90;;;;;;5233288;28;20044;-62
2022/07/04 06:08:47;;;;;;;3.55;1.58;;;28.70;99.90;;;;;;5242586;28;20337;-62
2022/07/04 06:11:19;;;;;;;2.05;1.70;;;29.10;99.90;;;;;;5225150;28;20317;-62
2022/07/04 06:13:52;;;;;;;1.52;1.40;;;29.60;99.90;;;;;;5207627;28;20318;-61
2022/07/04 06:16:27;;;;;;;1.55;1.27;;;29.50;99.90;;;;;;5242927;28;20048;-62
2022/07/04 06:18:58;;;;;;;1.52;1.17;;;29.70;99.90;;;;;;5259990;28;20306;-62
2022/07/04 06:21:31;;;;;;;1.38;1.27;;;30.00;99.90;;;;;;5257723;28;20310;-62
2022/07/04 06:24:03;;;;;;;4.90;2.40;;;29.80;99.90;;;;;;5258260;28;20035;-63
2022/07/04 06:26:36;;;;;;;1.85;1.25;;;29.80;99.90;;;;;;5244446;28;20273;-62
2022/07/04 06:29:07;;;;;;;1.10;1.00;;;29.70;99.90;;;;;;5234132;28;20261;-62
2022/07/04 06:31:39;;;;;;;1.58;1.10;;;29.70;99.90;;;;;;5239752;28;20028;-62
2022/07/04 06:37:03;;;;;;;1.55;1.30;;;29.60;99.90;;;;;;5240140;28;20059;-62
2022/07/04 06:39:34;;;;;;;;;;;28.80;99.90;;;;;;5240995;28;20021;-65
2022/07/04 06:42:05;;;;;;;1.67;1.10;;;27.50;99.90;;;;;;5205583;28;20019;-62
2022/07/04 06:44:36;;;;;;;2.35;1.13;;;27.60;99.90;;;;;;5218326;28;20175;-61
2022/07/04 06:47:10;;;;;;;2.88;1.20;;;27.00;99.90;;;;;;5201392;28;20028;-63
2022/07/04 06:49:41;;;;;;;1.90;1.43;;;26.40;99.90;;;;;;5220448;28;20037;-63
2022/07/04 06:52:12;;;;;;;1.20;1.10;;;26.60;99.90;;;;;;5235583;28;20027;-61
2022/07/04 06:54:47;;;;;;;1.45;1.17;;;26.40;99.90;;;;;;5221496;28;20028;-61
2022/07/04 06:57:21;;;;;;;1.77;1.15;;;26.40;99.90;;;;;;5239227;28;20261;-62
2022/07/04 06:59:55;;;;;;;1.13;1.02;;;26.60;99.90;;;;;;5239998;28;20013;-62
2022/07/04 07:02:26;;;;;;;1.08;1.00;;;26.90;99.90;;;;;;5216211;28;20324;-62
2022/07/04 07:04:57;;;;;;;1.20;1.10;;;27.50;99.90;;;;;;5206827;28;20052;-62
2022/07/04 07:07:29;;;;;;;1.15;1.05;;;27.70;99.90;;;;;;5210091;28;20050;-62
2022/07/04 07:10:05;;;;;;;1.30;1.20;;;27.60;99.90;;;;;;5238904;28;20038;-61
2022/07/04 07:12:37;;;;;;;1.30;1.20;;;27.50;99.90;;;;;;5238735;28;20035;-61
2022/07/04 07:15:08;;;;;;;1.20;1.10;;;27.40;99.90;;;;;;5220780;28;20029;-62
2022/07/04 07:17:40;;;;;;;1.20;1.10;;;27.30;99.90;;;;;;5222934;28;20032;-62
2022/07/04 07:20:13;;;;;;;1.42;1.30;;;27.10;99.90;;;;;;5238822;28;20035;-60
2022/07/04 07:22:44;;;;;;;1.50;1.40;;;27.10;99.90;;;;;;5221062;28;20235;-62
2022/07/04 07:25:17;;;;;;;1.30;1.20;;;26.90;99.90;;;;;;5238263;28;20032;-61
2022/07/04 07:27:48;;;;;;;1.20;1.10;;;27.10;99.90;;;;;;5239280;28;20335;-62
2022/07/04 07:30:23;;;;;;;1.52;1.23;;;26.90;99.90;;;;;;5238530;28;20025;-62
2022/07/04 07:32:54;;;;;;;1.40;1.10;;;27.30;99.90;;;;;;5221678;28;20516;-62
2022/07/04 07:35:25;;;;;;;1.50;1.25;;;27.30;99.90;;;;;;5204425;28;20032;-61
2022/07/04 07:37:59;;;;;;;3.22;1.30;;;27.30;99.90;;;;;;5222583;28;20570;-61
2022/07/04 07:40:30;;;;;;;1.17;1.00;;;27.50;99.90;;;;;;5239115;28;20028;-61
2022/07/04 07:43:06;;;;;;;1.55;1.17;;;27.30;99.90;;;;;;5221381;28;20264;-62
2022/07/04 07:45:44;;;;;;;1.10;1.00;;;27.40;99.90;;;;;;5239013;28;20029;-60
2022/07/04 07:48:21;;;;;;;1.25;1.02;;;26.50;99.90;;;;;;5222271;28;20270;-61
2022/07/04 07:50:55;;;;;;;5.15;1.00;;;26.20;99.90;;;;;;5240608;28;20028;-61
2022/07/04 07:53:26;;;;;;;1.02;0.98;;;26.10;99.90;;;;;;5220987;28;20038;-61
2022/07/04 07:55:57;;;;;;;1.60;1.15;;;25.90;99.90;;;;;;5239616;28;20024;-60
2022/07/04 07:58:28;;;;;;;0.77;0.77;;;26.00;99.90;;;;;;5239997;28;20024;-62
2022/07/04 08:01:02;;;;;;;0.90;0.90;;;26.20;99.90;;;;;;5222053;28;20370;-61
2022/07/04 08:06:28;;;;;;;0.80;0.80;;;26.20;99.90;;;;;;5212344;28;20036;-60
2022/07/04 08:09:02;;;;;;;1.00;0.82;;;26.30;99.90;;;;;;5239315;28;20028;-66
2022/07/04 08:11:38;;;;;;;0.75;0.75;;;26.40;99.90;;;;;;5239604;28;20221;-62
2022/07/04 08:14:10;;;;;;;0.82;0.82;;;26.50;99.90;;;;;;5238540;28;20028;-62
2022/07/04 08:16:43;;;;;;;0.77;0.77;;;26.80;99.90;;;;;;5238623;28;20241;-61
2022/07/04 08:19:14;;;;;;;0.80;0.80;;;27.00;99.90;;;;;;5245419;28;20023;-61
2022/07/04 08:21:48;;;;;;;0.77;0.77;;;27.30;99.90;;;;;;5246776;28;20193;-60
2022/07/04 08:24:23;;;;;;;0.90;0.88;;;27.50;99.90;;;;;;5238845;28;20021;-62
2022/07/04 08:26:57;;;;;;;1.00;0.90;;;27.70;99.90;;;;;;5239495;28;20302;-62
2022/07/04 08:29:31;;;;;;;2.10;0.88;;;27.70;99.90;;;;;;5238838;28;20020;-61
2022/07/04 08:32:03;;;;;;;1.00;0.90;;;27.50;99.90;;;;;;5221231;28;20225;-61
2022/07/04 08:34:35;;;;;;;1.08;0.77;;;27.50;99.90;;;;;;5239171;28;20363;-61
2022/07/04 08:37:11;;;;;;;1.00;1.00;;;27.80;99.90;;;;;;5241989;28;20020;-62
2022/07/04 08:39:42;;;;;;;0.90;0.70;;;27.70;99.90;;;;;;5239374;28;20340;-61
2022/07/04 08:42:17;;;;;;;1.90;0.90;;;27.60;99.90;;;;;;5238840;28;20043;-60
2022/07/04 08:44:54;;;;;;;1.55;0.90;;;27.50;99.90;;;;;;5239507;28;20446;-62
2022/07/04 08:47:30;;;;;;;0.70;0.70;;;27.80;99.90;;;;;;5239464;28;20175;-60
2022/07/04 08:50:25;;;;;;;0.80;0.80;;;27.60;99.90;;;;;;5221650;28;20043;-60
2022/07/04 08:53:00;;;;;;;0.95;0.90;;;27.30;99.90;;;;;;5240514;28;20025;-62
2022/07/04 08:58:31;;;;;;;0.98;0.82;;;27.30;99.90;;;;;;5224133;28;20028;-61
2022/07/04 09:01:21;;;;;;;0.60;0.60;;;27.50;99.90;;;;;;5208049;28;20032;-60
2022/07/04 09:03:54;;;;;;;1.50;1.02;;;27.40;99.90;;;;;;5224307;28;20028;-61
2022/07/04 09:06:29;;;;;;;1.52;1.38;;;26.90;99.90;;;;;;5211708;28;20051;-61
2022/07/04 09:09:00;;;;;;;2.25;1.20;;;26.70;99.90;;;;;;5224092;28;20323;-61
2022/07/04 09:11:33;;;;;;;0.93;0.93;;;26.70;99.90;;;;;;5257085;28;20028;-61
2022/07/04 09:14:04;;;;;;;1.10;1.00;;;26.60;99.90;;;;;;5259437;28;20030;-63
2022/07/04 09:16:35;;;;;;;0.80;0.80;;;26.50;99.90;;;;;;5263265;28;20026;-60
2022/07/04 09:19:18;;;;;;;2.05;0.70;;;26.40;99.90;;;;;;5244884;28;20032;-60
2022/07/04 09:21:49;;;;;;;0.85;0.85;;;26.40;99.90;;;;;;5229929;28;20013;-61
2022/07/04 09:24:46;;;;;;;1.08;0.85;;;26.40;99.90;;;;;;5242664;28;20021;-61
2022/07/04 09:27:41;;;;;;;1.27;0.90;;;26.30;99.90;;;;;;5240627;28;20016;-61
2022/07/04 09:30:24;;;;;;;1.00;0.95;;;25.70;99.90;;;;;;5225426;28;20020;-61
2022/07/04 09:33:00;;;;;;;0.85;0.85;;;25.30;99.90;;;;;;5242274;28;20034;-62
2022/07/04 09:35:33;;;;;;;0.90;0.90;;;25.20;99.90;;;;;;5240401;28;20211;-61
2022/07/04 09:38:09;;;;;;;0.90;0.90;;;25.30;99.90;;;;;;5208528;28;20036;-61
2022/07/04 09:43:30;;;;;;;1.10;1.00;;;25.90;99.90;;;;;;5242889;28;20024;-61
2022/07/04 09:46:01;;;;;;;1.23;1.13;;;26.10;99.90;;;;;;5224166;28;20029;-61
2022/07/04 09:48:52;;;;;;;0.77;0.77;;;26.10;99.90;;;;;;5211993;28;20033;-61
2022/07/04 09:51:43;;;;;;;1.80;1.00;;;26.20;99.90;;;;;;5206188;28;20047;-60
2022/07/04 09:54:30;;;;;;;1.35;1.00;;;26.10;99.90;;;;;;5240483;28;20302;-62
2022/07/04 09:57:06;;;;;;;0.80;0.80;;;26.10;99.90;;;;;;5242403;28;20034;-62
2022/07/04 09:59:37;;;;;;;1.40;1.30;;;26.10;99.90;;;;;;5245773;28;20213;-61
2022/07/04 10:02:16;;;;;;;1.10;1.00;;;26.20;99.90;;;;;;5241775;28;20031;-61
2022/07/04 10:04:51;;;;;;;0.90;0.90;;;26.50;99.90;;;;;;5231252;28;20048;-63
2022/07/04 10:07:54;;;;;;;;;;;26.70;99.90;;;;;;5224310;28;20054;-60
2022/07/04 10:10:28;;;;;;;1.10;0.90;;;26.60;99.90;;;;;;5232539;28;19908;-63
2022/07/04 10:13:04;;;;;;;1.20;1.10;;;26.40;99.90;;;;;;5258474;28;20197;-60
2022/07/04 10:15:41;;;;;;;3.30;1.02;;;26.30;99.90;;;;;;5244464;28;20228;-60
2022/07/04 10:18:21;;;;;;;2.47;0.98;;;26.50;99.90;;;;;;5262142;28;20024;-61
2022/07/04 10:20:56;;;;;;;1.20;1.10;;;27.00;99.90;;;;;;5259371;28;20031;-61
2022/07/04 10:23:31;;;;;;;0.85;0.85;;;27.30;99.90;;;;;;5223841;28;20403;-63
2022/07/04 10:26:08;;;;;;;0.88;0.88;;;27.70;99.90;;;;;;5244762;28;20022;-62
2022/07/04 10:28:40;;;;;;;1.20;1.10;;;28.00;99.90;;;;;;5257395;28;20020;-63
2022/07/04 10:31:13;;;;;;;1.60;1.00;;;28.20;99.90;;;;;;5228852;28;20032;-61
2022/07/04 10:33:49;;;;;;;1.02;0.95;;;28.80;99.90;;;;;;5244564;28;20028;-63
2022/07/04 10:36:22;;;;;;;1.10;1.00;;;29.50;99.90;;;;;;5261659;28;20035;-62
2022/07/04 10:38:59;;;;;;;1.50;1.20;;;30.00;99.90;;;;;;5262514;28;20304;-63
2022/07/04 10:41:34;;;;;;;1.40;1.30;;;30.80;99.90;;;;;;5244728;28;20328;-62
2022/07/04 10:44:07;;;;;;;0.82;0.82;;;31.30;99.90;;;;;;5241099;28;20019;-63
2022/07/04 10:46:53;;;;;;;1.13;1.08;;;31.90;99.90;;;;;;5240251;28;20228;-62
2022/07/04 10:49:28;;;;;;;2.45;1.10;;;33.00;99.90;;;;;;5240791;28;20032;-63
2022/07/04 10:52:15;;;;;;;1.50;1.17;;;33.20;99.90;;;;;;5239949;28;20017;-63
2022/07/04 10:54:46;;;;;;;1.02;1.00;;;33.90;99.90;;;;;;5201722;28;20224;-63
2022/07/04 10:57:23;;;;;;;1.42;1.30;;;34.60;99.90;;;;;;5240170;28;20016;-62
2022/07/04 10:59:57;;;;;;;1.30;1.20;;;35.70;99.90;;;;;;5240396;28;20024;-63
2022/07/04 11:02:33;;;;;;;1.58;1.40;;;36.10;99.90;;;;;;5240360;28;20031;-63
2022/07/04 11:05:21;;;;;;;1.20;1.10;;;36.80;99.90;;;;;;5211825;28;20051;-62
2022/07/04 11:08:00;;;;;;;2.35;1.30;;;35.80;99.90;;;;;;5239781;28;20371;-62
2022/07/04 11:10:38;;;;;;;1.00;1.00;;;34.00;99.90;;;;;;5241375;28;20066;-62
2022/07/04 11:13:17;;;;;;;1.13;1.05;;;32.70;99.90;;;;;;5252022;28;20012;-64
2022/07/04 11:15:49;;;;;;;3.22;1.50;;;31.70;99.90;;;;;;5239660;28;20030;-62
2022/07/04 11:18:23;;;;;;;1.38;1.25;;;31.00;99.90;;;;;;5240902;28;20225;-61
2022/07/04 11:20:55;;;;;;;3.90;1.30;;;31.50;99.90;;;;;;5239871;28;20655;-61
2022/07/04 11:23:26;;;;;;;1.58;1.23;;;31.30;99.90;;;;;;5205720;28;20235;-61
2022/07/04 11:26:02;;;;;;;2.72;1.10;;;31.90;99.90;;;;;;5240516;28;20225;-61
2022/07/04 11:28:35;;;;;;;1.60;1.50;;;32.40;99.90;;;;;;5239532;28;20016;-63
2022/07/04 11:31:06;;;;;;;1.30;1.20;;;31.70;99.90;;;;;;5204246;28;20225;-63
2022/07/04 11:33:41;;;;;;;1.25;1.15;;;32.10;99.90;;;;;;5239507;28;20031;-62
2022/07/04 11:36:24;;;;;;;1.10;1.00;;;31.90;99.90;;;;;;5240153;28;20339;-62
2022/07/04 11:39:01;;;;;;;1.00;1.00;;;31.60;99.90;;;;;;5238374;28;20317;-65
2022/07/04 11:47:43;;;;;;;1.20;1.10;;;32.50;99.90;;;;;;5232989;28;20037;-64
2022/07/04 11:50:18;;;;;;;2.05;1.60;;;33.40;99.90;;;;;;5214937;28;20050;-62
2022/07/04 11:52:53;;;;;;;1.20;1.10;;;33.90;99.90;;;;;;5222414;28;20042;-62
2022/07/04 11:55:24;;;;;;;1.77;1.67;;;33.20;99.90;;;;;;5222200;28;20024;-62
2022/07/04 11:57:57;;;;;;;1.42;1.33;;;33.80;99.90;;;;;;5213528;28;20123;-62
2022/07/04 12:00:34;;;;;;;1.00;1.00;;;33.20;99.90;;;;;;5202206;28;20258;-63
2022/07/04 12:03:09;;;;;;;1.60;1.50;;;33.10;99.90;;;;;;5241661;28;20268;-63
2022/07/04 12:05:43;;;;;;;1.30;1.20;;;34.10;99.90;;;;;;5220952;28;20143;-61
2022/07/04 12:08:14;;;;;;;1.20;1.10;;;36.20;99.90;;;;;;5218388;28;20040;-63
2022/07/04 12:10:48;;;;;;;1.23;1.05;;;37.90;99.90;;;;;;5220776;28;20122;-63
2022/07/04 12:13:22;;;;;;;;;;;37.90;99.90;;;;;;5235709;28;20047;-63
2022/07/04 12:15:56;;;;;;;1.10;1.10;;;38.70;99.90;;;;;;5234223;28;19905;-64
2022/07/04 12:18:32;;;;;;;1.30;1.20;;;39.10;99.90;;;;;;5225961;28;20303;-62
2022/07/04 12:21:22;;;;;;;1.83;1.65;;;37.80;99.90;;;;;;5209148;28;20439;-62
2022/07/04 12:23:57;;;;;;;1.60;1.50;;;38.90;99.90;;;;;;5240377;28;20044;-62
2022/07/04 12:26:28;;;;;;;9.77;2.05;;;38.70;99.90;;;;;;5235040;28;20016;-62
2022/07/04 12:28:59;;;;;;;1.42;1.20;;;39.30;99.90;;;;;;5218377;28;20044;-63
2022/07/04 12:31:43;;;;;;;1.30;1.20;;;39.90;99.90;;;;;;5219831;28;20029;-62
2022/07/04 12:34:16;;;;;;;1.40;1.30;;;40.40;99.90;;;;;;5213480;28;20050;-63
2022/07/04 12:36:58;;;;;;;5.65;1.48;;;40.60;99.90;;;;;;5239317;28;20032;-65
2022/07/04 12:39:30;;;;;;;1.13;1.13;;;39.90;99.90;;;;;;5238808;28;20033;-62
2022/07/04 12:42:05;;;;;;;1.17;1.10;;;40.10;99.90;;;;;;5243778;28;20016;-63
2022/07/04 12:44:37;;;;;;;1.38;1.27;;;41.70;99.90;;;;;;5260299;28;20312;-61
2022/07/04 12:47:11;;;;;;;0.90;0.90;;;41.90;99.90;;;;;;5255573;28;20023;-62
2022/07/04 12:49:51;;;;;;;2.10;1.20;;;43.10;99.90;;;;;;5212766;28;20237;-61
2022/07/04 12:52:28;;;;;;;2.20;1.40;;;44.10;99.90;;;;;;5236181;28;20025;-63
2022/07/04 12:55:06;;;;;;;1.33;1.23;;;45.50;97.80;;;;;;5237368;28;20038;-65
2022/07/04 12:57:38;;;;;;;1.30;1.20;;;44.90;95.50;;;;;;5219145;28;20302;-62
2022/07/04 13:00:10;;;;;;;1.50;1.40;;;45.80;95.00;;;;;;5220768;28;20032;-62
2022/07/04 13:02:51;;;;;;;1.58;1.27;;;46.80;93.80;;;;;;5227868;28;20029;-62
2022/07/04 13:05:23;;;;;;;1.40;1.30;;;44.90;94.00;;;;;;5219754;28;20268;-62
2022/07/04 13:07:57;;;;;;;1.00;1.00;;;42.20;94.70;;;;;;5233262;28;20048;-61
2022/07/04 13:10:28;;;;;;;1.30;1.20;;;40.30;97.00;;;;;;5218975;28;20043;-63
2022/07/04 13:13:00;;;;;;;1.55;1.45;;;38.10;96.30;;;;;;5220623;28;20356;-61
2022/07/04 13:15:34;;;;;;;1.30;1.20;;;37.10;98.10;;;;;;5218121;28;20025;-61
2022/07/04 13:18:05;;;;;;;1.52;1.40;;;35.10;99.90;;;;;;5218837;28;20188;-62
2022/07/04 13:20:39;;;;;;;1.60;1.45;;;34.00;99.90;;;;;;5219332;28;20020;-61
2022/07/04 13:23:11;;;;;;;2.25;1.35;;;34.60;99.90;;;;;;5204290;28;20024;-60
2022/07/04 13:29:10;;;;;;;0.95;0.95;;;37.90;99.90;;;;;;5219447;28;20033;-62
2022/07/04 13:31:44;;;;;;;1.50;1.27;;;38.70;98.70;;;;;;5224861;28;20336;-63
2022/07/04 13:34:15;;;;;;;1.25;1.15;;;38.30;98.70;;;;;;5223473;28;20025;-63
2022/07/04 13:36:51;;;;;;;1.42;1.33;;;39.50;98.40;;;;;;5220906;28;20031;-62
2022/07/04 13:39:24;;;;;;;2.00;1.60;;;39.60;98.40;;;;;;5241776;28;20037;-62
2022/07/04 13:41:55;;;;;;;1.40;1.27;;;38.70;98.80;;;;;;5248942;28;20016;-62
2022/07/04 13:44:27;;;;;;;2.53;1.60;;;39.20;99.10;;;;;;5231051;28;20033;-61
2022/07/04 13:46:59;;;;;;;1.88;1.77;;;39.50;99.30;;;;;;5252586;28;20032;-62
2022/07/04 13:49:30;;;;;;;2.00;1.90;;;40.30;99.90;;;;;;5239241;28;20028;-62
2022/07/04 13:52:01;;;;;;;1.75;1.65;;;39.40;99.90;;;;;;5235814;28;20209;-62
2022/07/04 13:54:40;;;;;;;1.70;1.38;;;37.90;99.90;;;;;;5237714;28;20293;-63
2022/07/04 13:57:12;;;;;;;11.98;5.85;;;37.30;99.90;;;;;;5249209;28;20029;-61
2022/07/04 13:59:44;;;;;;;4.95;3.50;;;36.50;99.90;;;;;;5234198;28;20356;-62
2022/07/04 14:02:16;;;;;;;1.38;1.27;;;36.00;99.90;;;;;;5231442;28;20035;-62
2022/07/04 14:04:47;;;;;;;1.77;1.15;;;35.20;99.90;;;;;;5238660;28;20254;-62
2022/07/04 14:07:20;;;;;;;1.50;1.40;;;35.00;99.90;;;;;;5226488;28;20024;-61
2022/07/04 14:09:52;;;;;;;2.33;1.40;;;34.40;99.90;;;;;;5233560;28;20039;-61
2022/07/04 14:12:23;;;;;;;1.50;1.40;;;34.30;99.90;;;;;;5199729;28;20032;-61